Time;durP1;ratioP1;P1;durP2;ratioP2;P2;SDS_P1;SDS_P2;PMS_P1;PMS_P2;Temp;Humidity;BMP_temperature;BMP_pressure;BME280_temperature;BME280_humidity;BME280_pressure;Samples;Min_cycle;Max_cycle;Signal;HPM_P1;HPM_P2
2023/10/07 00:00:27;;;;;;;16.88;7.97;;;;;;;;;;5001778;28;20068;-39
2023/10/07 00:02:55;;;;;;;15.32;8.07;;;;;;;;;;4992552;28;20058;-39
2023/10/07 00:05:31;;;;;;;15.60;7.67;;;;;;;;;;5000019;28;20041;-39
2023/10/07 00:08:02;;;;;;;15.70;8.00;;;;;;;;;;4992845;28;20452;-39
2023/10/07 00:10:30;;;;;;;17.58;7.07;;;;;;;;;;5000850;28;20046;-44
2023/10/07 00:13:00;;;;;;;17.80;7.85;;;;;;;;;;4990455;28;20045;-39
2023/10/07 00:15:29;;;;;;;15.80;7.50;;;;;;;;;;5000596;28;20045;-38
2023/10/07 00:18:10;;;;;;;15.73;7.50;;;;;;;;;;4989883;28;20038;-39
2023/10/07 00:20:41;;;;;;;18.80;7.28;;;;;;;;;;5008557;28;20045;-38
2023/10/07 00:23:11;;;;;;;16.60;7.15;;;;;;;;;;4987569;28;20872;-39
2023/10/07 00:25:40;;;;;;;14.85;6.05;;;;;;;;;;4995870;28;20480;-39
2023/10/07 00:28:18;;;;;;;15.38;6.70;;;;;;;;;;4985823;28;20596;-39
2023/10/07 00:30:48;;;;;;;14.87;6.40;;;;;;;;;;5002132;28;20491;-39
2023/10/07 00:33:21;;;;;;;14.48;6.45;;;;;;;;;;5000789;28;20653;-38
2023/10/07 00:35:53;;;;;;;14.68;6.45;;;;;;;;;;4995325;28;20044;-38
2023/10/07 00:38:22;;;;;;;15.45;6.45;;;;;;;;;;4995361;28;20057;-38
2023/10/07 00:40:53;;;;;;;13.93;6.03;;;;;;;;;;5004117;28;20502;-39
2023/10/07 00:43:25;;;;;;;16.47;5.77;;;;;;;;;;4977575;28;20129;-38
2023/10/07 00:46:06;;;;;;;15.45;6.28;;;;;;;;;;4987364;28;20399;-38
2023/10/07 00:48:46;;;;;;;12.07;5.57;;;;;;;;;;5000763;28;20034;-38
2023/10/07 00:51:17;;;;;;;12.57;5.38;;;;;;;;;;4998751;28;20045;-39
2023/10/07 00:54:00;;;;;;;15.93;6.47;;;;;;;;;;4997459;28;20072;-39
2023/10/07 00:56:33;;;;;;;12.40;5.57;;;;;;;;;;4991697;28;20496;-38
2023/10/07 00:59:07;;;;;;;16.02;5.10;;;;;;;;;;4998783;28;20076;-39
2023/10/07 01:01:37;;;;;;;17.70;6.40;;;;;;;;;;4980466;28;20045;-38
2023/10/07 01:04:12;;;;;;;10.88;5.55;;;;;;;;;;5000281;28;20038;-39
2023/10/07 01:06:45;;;;;;;11.52;5.10;;;;;;;;;;4976280;28;20041;-39
2023/10/07 01:09:14;;;;;;;13.97;5.70;;;;;;;;;;4998966;28;20048;-39
2023/10/07 01:11:46;;;;;;;13.05;5.32;;;;;;;;;;4972584;28;20042;-39
2023/10/07 01:14:13;;;;;;;15.30;5.80;;;;;;;;;;5010908;28;20046;-38
2023/10/07 01:16:43;;;;;;;10.27;5.35;;;;;;;;;;4993506;28;20033;-39
2023/10/07 01:19:27;;;;;;;16.13;5.70;;;;;;;;;;5028511;28;20033;-39
2023/10/07 01:21:57;;;;;;;12.87;5.00;;;;;;;;;;4995393;28;20033;-39
2023/10/07 01:24:46;;;;;;;13.48;5.78;;;;;;;;;;5001161;28;20041;-39
2023/10/07 01:27:28;;;;;;;13.18;5.10;;;;;;;;;;4996543;28;20555;-39
2023/10/07 01:30:06;;;;;;;13.95;4.95;;;;;;;;;;4970744;28;20612;-38
2023/10/07 01:32:42;;;;;;;12.05;5.55;;;;;;;;;;4996078;28;20049;-39
2023/10/07 01:35:11;;;;;;;10.63;5.13;;;;;;;;;;4999570;28;20393;-44
2023/10/07 01:37:44;;;;;;;14.88;5.75;;;;;;;;;;5002465;28;20403;-39
2023/10/07 01:40:17;;;;;;;14.38;5.20;;;;;;;;;;4997237;28;20420;-39
2023/10/07 01:42:45;;;;;;;11.07;4.90;;;;;;;;;;5002587;28;20046;-38
2023/10/07 01:45:21;;;;;;;12.18;5.70;;;;;;;;;;4991495;28;20056;-38
2023/10/07 01:47:49;;;;;;;11.33;4.73;;;;;;;;;;5003993;28;20136;-38
2023/10/07 01:50:18;;;;;;;11.55;4.38;;;;;;;;;;4998751;28;20555;-39
2023/10/07 01:52:48;;;;;;;15.32;5.00;;;;;;;;;;5012762;28;20049;-38
2023/10/07 01:55:19;;;;;;;13.88;4.63;;;;;;;;;;4988202;28;20073;-39
2023/10/07 01:57:50;;;;;;;11.45;4.55;;;;;;;;;;5000749;28;20041;-38
2023/10/07 02:00:37;;;;;;;9.30;4.03;;;;;;;;;;5007342;28;20052;-38
2023/10/07 02:03:08;;;;;;;9.32;4.05;;;;;;;;;;4999964;28;20416;-39
2023/10/07 02:05:40;;;;;;;14.00;5.00;;;;;;;;;;4993336;28;20041;-39
2023/10/07 02:08:12;;;;;;;10.63;3.58;;;;;;;;;;5009844;28;20041;-39
2023/10/07 02:10:42;;;;;;;11.93;4.28;;;;;;;;;;5000007;28;20049;-38
2023/10/07 02:13:18;;;;;;;12.60;4.87;;;;;;;;;;4988338;28;20151;-38
2023/10/07 02:15:46;;;;;;;15.57;5.00;;;;;;;;;;4999263;28;20091;-39
2023/10/07 02:18:16;;;;;;;10.90;4.57;;;;;;;;;;5006401;28;20037;-38
2023/10/07 02:20:49;;;;;;;12.93;4.57;;;;;;;;;;5010852;28;20176;-39
2023/10/07 02:23:28;;;;;;;10.55;4.43;;;;;;;;;;5004930;28;20041;-38
2023/10/07 02:25:58;;;;;;;11.53;4.87;;;;;;;;;;5001294;28;20499;-38
2023/10/07 02:28:32;;;;;;;10.27;4.32;;;;;;;;;;5001363;28;20050;-39
2023/10/07 02:31:07;;;;;;;11.95;5.05;;;;;;;;;;4998689;28;20410;-39
2023/10/07 02:33:42;;;;;;;10.82;4.70;;;;;;;;;;5009421;28;20042;-39
2023/10/07 02:36:12;;;;;;;12.07;4.88;;;;;;;;;;4986434;28;20041;-41
2023/10/07 02:38:42;;;;;;;10.30;5.30;;;;;;;;;;4998342;28;20029;-39
2023/10/07 02:41:17;;;;;;;13.95;5.05;;;;;;;;;;5010822;28;20051;-40
2023/10/07 02:43:48;;;;;;;10.27;4.63;;;;;;;;;;5016462;28;20049;-38
2023/10/07 02:46:31;;;;;;;12.27;5.15;;;;;;;;;;4996719;28;20080;-38
2023/10/07 02:49:09;;;;;;;10.52;4.70;;;;;;;;;;5006684;28;21062;-39
2023/10/07 02:51:45;;;;;;;11.90;4.77;;;;;;;;;;5003326;28;20124;-38
2023/10/07 02:54:17;;;;;;;12.00;4.70;;;;;;;;;;4995757;28;20037;-38
2023/10/07 02:56:54;;;;;;;11.02;5.00;;;;;;;;;;5004561;28;20311;-38
2023/10/07 02:59:27;;;;;;;14.02;5.50;;;;;;;;;;4997534;28;20041;-40
2023/10/07 03:02:21;;;;;;;10.90;4.38;;;;;;;;;;5004233;28;20083;-39
2023/10/07 03:05:13;;;;;;;11.87;4.80;;;;;;;;;;5005452;28;20046;-39
2023/10/07 03:07:42;;;;;;;12.27;5.13;;;;;;;;;;4987552;28;20076;-38
2023/10/07 03:10:18;;;;;;;11.95;4.68;;;;;;;;;;4986739;28;20145;-40
2023/10/07 03:12:49;;;;;;;10.27;4.22;;;;;;;;;;4999156;28;20033;-38
2023/10/07 03:15:40;;;;;;;13.45;4.72;;;;;;;;;;5002600;28;20130;-39
2023/10/07 03:18:21;;;;;;;14.93;4.80;;;;;;;;;;4997323;28;20049;-39
2023/10/07 03:21:00;;;;;;;11.10;4.50;;;;;;;;;;5008698;28;20033;-39
2023/10/07 03:23:33;;;;;;;11.05;4.65;;;;;;;;;;5004937;28;20041;-39
2023/10/07 03:26:06;;;;;;;9.85;4.47;;;;;;;;;;4992195;28;20500;-38
2023/10/07 03:28:36;;;;;;;13.57;4.40;;;;;;;;;;5006561;28;20053;-38
2023/10/07 03:31:10;;;;;;;16.43;5.23;;;;;;;;;;4999048;28;20496;-38
2023/10/07 03:33:45;;;;;;;11.32;3.92;;;;;;;;;;5000171;28;20052;-38
2023/10/07 03:36:30;;;;;;;13.38;5.47;;;;;;;;;;4999855;28;20045;-38
2023/10/07 03:39:16;;;;;;;12.50;5.18;;;;;;;;;;5000951;28;20395;-39
2023/10/07 03:41:47;;;;;;;10.90;4.70;;;;;;;;;;5003215;28;20052;-39
2023/10/07 03:44:17;;;;;;;13.07;5.13;;;;;;;;;;5002429;28;20044;-38
2023/10/07 03:46:47;;;;;;;13.27;4.60;;;;;;;;;;5008065;28;20038;-39
2023/10/07 03:49:21;;;;;;;12.40;4.80;;;;;;;;;;4999071;28;20604;-39
2023/10/07 03:51:59;;;;;;;10.27;4.45;;;;;;;;;;4997955;28;20033;-38
2023/10/07 03:54:29;;;;;;;13.80;5.28;;;;;;;;;;4997735;28;20280;-38
2023/10/07 03:56:59;;;;;;;14.40;4.90;;;;;;;;;;4998015;28;20388;-39
2023/10/07 03:59:28;;;;;;;10.27;4.40;;;;;;;;;;4999631;28;20550;-39
2023/10/07 04:01:56;;;;;;;11.00;4.97;;;;;;;;;;4997580;28;20056;-39
2023/10/07 04:04:24;;;;;;;11.98;5.13;;;;;;;;;;5003048;28;20567;-38
2023/10/07 04:06:52;;;;;;;12.48;4.13;;;;;;;;;;4990124;28;20061;-40
2023/10/07 04:09:32;;;;;;;9.33;4.27;;;;;;;;;;5003322;28;20041;-38
2023/10/07 04:12:01;;;;;;;12.45;4.85;;;;;;;;;;4996324;28;20048;-38
2023/10/07 04:14:31;;;;;;;10.35;5.07;;;;;;;;;;5003482;28;20081;-39
2023/10/07 04:17:00;;;;;;;12.20;4.95;;;;;;;;;;5000210;28;20471;-38
2023/10/07 04:19:38;;;;;;;18.20;5.57;;;;;;;;;;5000826;28;20034;-38
2023/10/07 04:22:09;;;;;;;10.73;4.70;;;;;;;;;;5003176;28;20073;-38
2023/10/07 04:24:43;;;;;;;13.18;4.82;;;;;;;;;;5000670;28;20054;-38
2023/10/07 04:27:18;;;;;;;13.43;4.43;;;;;;;;;;4997506;28;20145;-38
2023/10/07 04:29:51;;;;;;;16.05;5.32;;;;;;;;;;4993433;28;21267;-39
2023/10/07 04:32:21;;;;;;;9.77;4.85;;;;;;;;;;4994255;28;20508;-38
2023/10/07 04:35:06;;;;;;;11.37;5.10;;;;;;;;;;5001515;28;20068;-38
2023/10/07 04:37:52;;;;;;;11.18;4.90;;;;;;;;;;5005037;28;20046;-39
2023/10/07 04:40:53;;;;;;;7.53;3.50;;;;;;;;;;5000641;28;20049;-39
2023/10/07 04:43:35;;;;;;;13.05;4.40;;;;;;;;;;5011245;28;20049;-38
2023/10/07 04:46:21;;;;;;;13.73;4.88;;;;;;;;;;4981373;28;20041;-38
2023/10/07 04:48:54;;;;;;;13.90;4.53;;;;;;;;;;4995091;28;20044;-39
2023/10/07 04:51:46;;;;;;;10.10;4.60;;;;;;;;;;5001575;28;20510;-38
2023/10/07 04:54:20;;;;;;;12.25;5.13;;;;;;;;;;5006078;28;20044;-38
2023/10/07 04:57:00;;;;;;;12.35;4.53;;;;;;;;;;4995046;28;20851;-39
2023/10/07 04:59:28;;;;;;;9.23;4.50;;;;;;;;;;5008004;28;20041;-39
2023/10/07 05:02:01;;;;;;;12.90;4.97;;;;;;;;;;4991401;28;20773;-39
2023/10/07 05:04:28;;;;;;;11.85;4.55;;;;;;;;;;5001950;28;20045;-39
2023/10/07 05:06:57;;;;;;;11.38;5.00;;;;;;;;;;4996470;28;20038;-39
2023/10/07 05:09:26;;;;;;;12.95;4.80;;;;;;;;;;4990909;28;20041;-39
2023/10/07 05:11:54;;;;;;;10.48;4.88;;;;;;;;;;5003465;28;20041;-38
2023/10/07 05:14:22;;;;;;;11.10;4.77;;;;;;;;;;5004055;28;20049;-40
2023/10/07 05:16:52;;;;;;;10.77;4.63;;;;;;;;;;4991535;28;20663;-44
2023/10/07 05:19:22;;;;;;;14.02;5.47;;;;;;;;;;5000551;28;20083;-39
2023/10/07 05:21:59;;;;;;;15.23;5.60;;;;;;;;;;4999026;28;20046;-39
2023/10/07 05:24:32;;;;;;;16.17;5.50;;;;;;;;;;4994760;28;20046;-38
2023/10/07 05:27:04;;;;;;;13.73;5.30;;;;;;;;;;4996837;28;20594;-39
2023/10/07 05:29:32;;;;;;;13.60;5.05;;;;;;;;;;4996539;28;20647;-38
2023/10/07 05:32:00;;;;;;;14.43;5.43;;;;;;;;;;5001384;28;20041;-39
2023/10/07 05:34:30;;;;;;;16.85;5.30;;;;;;;;;;4987259;28;20674;-39
2023/10/07 05:36:59;;;;;;;13.40;5.82;;;;;;;;;;4988029;28;20060;-39
2023/10/07 05:39:28;;;;;;;13.13;5.27;;;;;;;;;;4986345;28;20502;-38
2023/10/07 05:41:56;;;;;;;12.02;5.70;;;;;;;;;;4995319;28;20138;-38
2023/10/07 05:44:24;;;;;;;12.65;6.22;;;;;;;;;;5005345;28;20033;-38
2023/10/07 05:46:52;;;;;;;13.57;5.70;;;;;;;;;;4996271;28;20136;-39
2023/10/07 05:49:22;;;;;;;15.05;6.15;;;;;;;;;;5000880;28;20152;-38
2023/10/07 05:51:51;;;;;;;16.80;6.33;;;;;;;;;;4993105;28;20036;-38
2023/10/07 05:54:21;;;;;;;11.27;5.22;;;;;;;;;;5002412;28;20037;-38
2023/10/07 05:56:48;;;;;;;13.55;5.38;;;;;;;;;;4990150;28;20812;-38
2023/10/07 05:59:16;;;;;;;12.75;6.00;;;;;;;;;;5000662;28;20029;-38
2023/10/07 06:01:44;;;;;;;13.57;6.15;;;;;;;;;;4988136;28;20265;-38
2023/10/07 06:04:12;;;;;;;13.30;6.10;;;;;;;;;;5000985;28;20045;-38
2023/10/07 06:06:42;;;;;;;20.17;6.38;;;;;;;;;;4988544;28;20561;-38
2023/10/07 06:09:14;;;;;;;15.48;6.05;;;;;;;;;;4999717;28;20040;-38
2023/10/07 06:11:42;;;;;;;11.43;5.80;;;;;;;;;;4987566;28;20654;-38
2023/10/07 06:14:11;;;;;;;12.73;5.68;;;;;;;;;;5001719;28;20065;-38
2023/10/07 06:16:42;;;;;;;14.27;6.10;;;;;;;;;;4996309;28;20045;-39
2023/10/07 06:19:13;;;;;;;15.13;5.70;;;;;;;;;;4995596;28;20609;-43
2023/10/07 06:21:50;;;;;;;14.18;5.90;;;;;;;;;;5003410;28;20038;-38
2023/10/07 06:24:21;;;;;;;13.82;5.13;;;;;;;;;;4990258;28;20115;-38
2023/10/07 06:26:50;;;;;;;14.23;5.57;;;;;;;;;;4997717;28;20124;-39
2023/10/07 06:29:19;;;;;;;15.77;5.40;;;;;;;;;;5001246;28;20450;-39
2023/10/07 06:31:54;;;;;;;15.23;6.00;;;;;;;;;;5006021;28;20060;-39
2023/10/07 06:34:26;;;;;;;14.25;5.43;;;;;;;;;;4996481;28;20547;-38
2023/10/07 06:36:54;;;;;;;16.55;6.22;;;;;;;;;;4991418;28;20069;-38
2023/10/07 06:39:28;;;;;;;13.25;5.88;;;;;;;;;;5001375;28;20511;-39
2023/10/07 06:41:56;;;;;;;12.07;5.60;;;;;;;;;;4992650;28;20037;-38
2023/10/07 06:44:24;;;;;;;10.88;5.55;;;;;;;;;;4997337;28;20045;-39
2023/10/07 06:46:56;;;;;;;12.55;5.65;;;;;;;;;;5002799;28;20095;-39
2023/10/07 06:49:28;;;;;;;12.00;5.47;;;;;;;;;;5006631;28;20041;-38
2023/10/07 06:51:56;;;;;;;11.20;5.22;;;;;;;;;;4991305;28;20045;-39
2023/10/07 06:54:32;;;;;;;13.63;4.83;;;;;;;;;;5005285;28;20389;-39
2023/10/07 06:57:01;;;;;;;11.30;5.03;;;;;;;;;;4993402;28;20046;-39
2023/10/07 06:59:29;;;;;;;13.13;5.20;;;;;;;;;;4997724;28;20969;-38
2023/10/07 07:02:05;;;;;;;11.82;5.25;;;;;;;;;;5002626;28;20045;-38
2023/10/07 07:04:35;;;;;;;12.90;4.90;;;;;;;;;;4991977;28;20030;-38
2023/10/07 07:07:10;;;;;;;15.00;5.73;;;;;;;;;;4995169;28;20637;-38
2023/10/07 07:09:50;;;;;;;18.10;7.90;;;;;;;;;;5021472;28;20049;-39
2023/10/07 07:12:18;;;;;;;12.20;5.88;;;;;;;;;;5009383;28;20491;-39
2023/10/07 07:14:50;;;;;;;12.90;5.47;;;;;;;;;;4992731;28;20049;-39
2023/10/07 07:17:35;;;;;;;14.48;5.45;;;;;;;;;;5000994;28;20041;-39
2023/10/07 07:20:29;;;;;;;14.63;5.40;;;;;;;;;;4993466;28;20053;-39
2023/10/07 07:22:58;;;;;;;12.98;5.97;;;;;;;;;;4989572;28;20041;-38
2023/10/07 07:25:36;;;;;;;11.50;5.80;;;;;;;;;;4989454;28;20137;-39
2023/10/07 07:28:06;;;;;;;9.77;5.10;;;;;;;;;;5000412;28;20103;-40
2023/10/07 07:30:35;;;;;;;12.27;6.03;;;;;;;;;;4990107;28;20103;-39
2023/10/07 07:33:07;;;;;;;15.27;5.90;;;;;;;;;;4994114;28;20041;-40
2023/10/07 07:35:40;;;;;;;12.75;6.35;;;;;;;;;;4991274;28;20033;-40
2023/10/07 07:38:18;;;;;;;15.85;6.20;;;;;;;;;;4987279;28;20045;-38
2023/10/07 07:41:01;;;;;;;14.85;6.07;;;;;;;;;;5006621;28;20048;-39
2023/10/07 07:43:29;;;;;;;18.50;6.50;;;;;;;;;;5012811;28;20096;-39
2023/10/07 07:46:11;;;;;;;15.80;6.20;;;;;;;;;;4990794;28;20038;-39
2023/10/07 07:48:39;;;;;;;11.85;5.72;;;;;;;;;;4991162;28;20041;-39
2023/10/07 07:51:09;;;;;;;13.38;6.00;;;;;;;;;;4993481;28;20037;-39
2023/10/07 07:53:39;;;;;;;10.85;5.70;;;;;;;;;;4987075;28;20152;-39
2023/10/07 07:56:12;;;;;;;13.48;6.15;;;;;;;;;;4998496;28;20049;-39
2023/10/07 07:58:40;;;;;;;13.57;5.80;;;;;;;;;;4997902;28;20065;-39
2023/10/07 08:01:15;;;;;;;11.57;5.45;;;;;;;;;;4953505;28;20682;-39
2023/10/07 08:03:43;;;;;;;12.05;5.60;;;;;;;;;;4990526;28;20061;-39
2023/10/07 08:06:12;;;;;;;14.13;5.97;;;;;;;;;;4994814;28;20044;-39
2023/10/07 08:08:40;;;;;;;14.35;5.60;;;;;;;;;;4931472;28;20034;-39
2023/10/07 08:11:13;;;;;;;15.77;6.83;;;;;;;;;;4988862;28;20041;-38
2023/10/07 08:13:42;;;;;;;16.73;6.65;;;;;;;;;;4958043;28;21169;-38
2023/10/07 08:16:15;;;;;;;13.75;6.40;;;;;;;;;;4998678;28;20073;-43
2023/10/07 08:18:44;;;;;;;12.77;6.25;;;;;;;;;;4983699;28;20112;-38
2023/10/07 08:21:14;;;;;;;12.80;6.18;;;;;;;;;;4997448;28;20042;-39
2023/10/07 08:23:44;;;;;;;13.87;6.80;;;;;;;;;;4959531;28;20160;-41
2023/10/07 08:26:20;;;;;;;15.32;7.40;;;;;;;;;;4991239;28;20040;-38
2023/10/07 08:28:59;;;;;;;13.48;6.10;;;;;;;;;;4992066;28;20268;-38
2023/10/07 08:31:37;;;;;;;12.27;6.07;;;;;;;;;;4999562;28;20040;-41
2023/10/07 08:34:10;;;;;;;17.00;7.00;;;;;;;;;;4993842;28;20175;-38
2023/10/07 08:36:43;;;;;;;14.10;6.30;;;;;;;;;;4992380;28;20038;-38
2023/10/07 08:39:12;;;;;;;15.68;5.95;;;;;;;;;;4993277;28;20047;-38
2023/10/07 08:41:47;;;;;;;13.05;6.35;;;;;;;;;;4997198;28;20045;-38
2023/10/07 08:44:15;;;;;;;14.48;6.22;;;;;;;;;;4299732;28;10000724;-38
2023/10/07 08:46:48;;;;;;;13.27;7.03;;;;;;;;;;4999465;28;20485;-39
2023/10/07 08:49:24;;;;;;;21.13;6.97;;;;;;;;;;4980386;28;20048;-40
2023/10/07 08:51:52;;;;;;;15.13;7.40;;;;;;;;;;4992948;28;20121;-38
2023/10/07 08:54:26;;;;;;;15.55;7.43;;;;;;;;;;4981204;28;20751;-38
2023/10/07 08:56:57;;;;;;;14.20;6.47;;;;;;;;;;4994335;28;21136;-38
2023/10/07 08:59:30;;;;;;;13.52;6.13;;;;;;;;;;4992694;28;20042;-38
2023/10/07 09:02:00;;;;;;;10.13;5.27;;;;;;;;;;4979476;28;20077;-38
2023/10/07 09:04:31;;;;;;;17.20;6.43;;;;;;;;;;4993289;28;20547;-38
2023/10/07 09:07:00;;;;;;;16.92;6.85;;;;;;;;;;4979137;28;20038;-38
2023/10/07 09:09:33;;;;;;;15.55;6.28;;;;;;;;;;4993432;28;20043;-38
2023/10/07 09:12:11;;;;;;;14.17;6.17;;;;;;;;;;4636122;28;10000515;-41
2023/10/07 09:14:45;;;;;;;14.55;5.38;;;;;;;;;;4983548;28;20056;-38
2023/10/07 09:17:13;;;;;;;12.63;5.38;;;;;;;;;;4996613;28;20045;-38
2023/10/07 09:19:47;;;;;;;10.85;5.18;;;;;;;;;;4995599;28;20048;-38
2023/10/07 09:22:21;;;;;;;13.93;5.93;;;;;;;;;;4986500;28;20065;-39
2023/10/07 09:24:48;;;;;;;14.87;6.40;;;;;;;;;;4985144;28;20046;-38
2023/10/07 09:27:36;;;;;;;10.40;5.13;;;;;;;;;;4997168;28;20049;-38
2023/10/07 09:30:34;;;;;;;13.07;5.25;;;;;;;;;;4991617;28;20132;-38
2023/10/07 09:32:56;;;;;;;12.60;5.43;;;;;;;;;;4985368;28;20041;-39
2023/10/07 09:35:25;;;;;;;11.20;4.63;;;;;;;;;;4990180;28;20029;-38
2023/10/07 09:37:55;;;;;;;12.77;5.70;;;;;;;;;;4972416;28;20898;-38
2023/10/07 09:43:13;;;;;;;12.82;5.45;;;;;;;;;;4993381;28;20056;-38
2023/10/07 09:45:40;;;;;;;14.85;5.72;;;;;;;;;;4993520;28;20041;-38
2023/10/07 09:48:09;;;;;;;11.15;6.10;;;;;;;;;;4998623;28;20581;-39
2023/10/07 09:50:38;;;;;;;13.50;5.33;;;;;;;;;;4997668;28;20108;-39
2023/10/07 09:53:19;;;;;;;9.90;5.35;;;;;;;;;;4993342;28;20045;-38
2023/10/07 09:56:11;;;;;;;11.25;4.60;;;;;;;;;;4997320;28;20056;-38
2023/10/07 09:58:52;;;;;;;13.10;6.13;;;;;;;;;;4979537;28;20069;-39
2023/10/07 10:01:37;;;;;;;10.90;4.80;;;;;;;;;;5001025;28;20038;-38
2023/10/07 10:04:21;;;;;;;13.93;5.17;;;;;;;;;;4992383;28;20200;-38
2023/10/07 10:06:55;;;;;;;12.23;5.03;;;;;;;;;;4986610;28;20037;-38
2023/10/07 10:09:27;;;;;;;11.23;4.70;;;;;;;;;;5005307;28;20049;-39
2023/10/07 10:15:09;;;;;;;9.35;4.00;;;;;;;;;;4997072;28;20054;-39
2023/10/07 10:17:39;;;;;;;7.77;3.80;;;;;;;;;;5003280;28;20049;-38
2023/10/07 10:20:13;;;;;;;12.57;4.93;;;;;;;;;;5000187;28;20049;-39
2023/10/07 10:22:49;;;;;;;10.85;4.78;;;;;;;;;;4997008;28;20050;-39
2023/10/07 10:25:28;;;;;;;11.02;5.15;;;;;;;;;;5010361;28;20051;-38
2023/10/07 10:27:58;;;;;;;12.85;5.65;;;;;;;;;;4996939;28;20046;-38
2023/10/07 10:30:28;;;;;;;11.17;4.63;;;;;;;;;;4995049;28;20041;-39
2023/10/07 10:32:58;;;;;;;9.05;4.38;;;;;;;;;;4988825;28;20488;-39
2023/10/07 10:35:28;;;;;;;9.07;3.95;;;;;;;;;;4996981;28;20771;-38
2023/10/07 10:37:56;;;;;;;12.80;4.78;;;;;;;;;;4986068;28;20041;-38
2023/10/07 10:40:24;;;;;;;11.40;4.90;;;;;;;;;;5004260;28;20037;-39
2023/10/07 10:42:52;;;;;;;12.30;4.93;;;;;;;;;;4996582;28;20729;-39
2023/10/07 10:45:24;;;;;;;10.80;4.63;;;;;;;;;;4989204;28;20282;-40
2023/10/07 10:47:54;;;;;;;9.77;4.13;;;;;;;;;;5003677;28;20037;-40
2023/10/07 10:50:24;;;;;;;11.70;4.35;;;;;;;;;;4985436;28;20045;-38
2023/10/07 10:52:54;;;;;;;11.30;5.07;;;;;;;;;;4999208;28;20037;-38
2023/10/07 10:55:24;;;;;;;10.93;3.87;;;;;;;;;;4992791;28;20553;-38
2023/10/07 10:57:52;;;;;;;10.13;4.40;;;;;;;;;;5006736;28;20613;-39
2023/10/07 11:00:21;;;;;;;9.98;4.28;;;;;;;;;;4995582;28;20045;-38
2023/10/07 11:02:51;;;;;;;13.40;4.82;;;;;;;;;;4997099;28;20644;-40
2023/10/07 11:05:21;;;;;;;8.77;4.28;;;;;;;;;;4991152;28;20124;-39
2023/10/07 11:07:53;;;;;;;8.87;4.30;;;;;;;;;;5002938;28;20351;-41
2023/10/07 11:10:23;;;;;;;10.65;4.15;;;;;;;;;;4997034;28;20053;-38
2023/10/07 11:12:52;;;;;;;10.85;4.90;;;;;;;;;;4646217;28;10000160;-42
2023/10/07 11:15:25;;;;;;;11.57;5.07;;;;;;;;;;4995959;28;20042;-39
2023/10/07 11:17:53;;;;;;;6.95;3.53;;;;;;;;;;4988699;28;20408;-39
2023/10/07 11:20:24;;;;;;;7.80;3.90;;;;;;;;;;5007557;28;20040;-38
2023/10/07 11:22:53;;;;;;;9.95;5.07;;;;;;;;;;4988146;28;20041;-39
2023/10/07 11:25:24;;;;;;;11.30;3.97;;;;;;;;;;4998813;28;20064;-39
2023/10/07 11:27:54;;;;;;;11.70;4.97;;;;;;;;;;4988545;28;20038;-39
2023/10/07 11:30:23;;;;;;;9.07;4.03;;;;;;;;;;5006101;28;20049;-38
2023/10/07 11:32:51;;;;;;;9.35;4.32;;;;;;;;;;4979691;28;20515;-39
2023/10/07 11:35:21;;;;;;;10.85;4.50;;;;;;;;;;4990892;28;20128;-39
2023/10/07 11:37:57;;;;;;;11.48;4.60;;;;;;;;;;4997857;28;20037;-39
2023/10/07 11:40:31;;;;;;;9.73;3.60;;;;;;;;;;4989190;28;20124;-39
2023/10/07 11:43:04;;;;;;;9.63;3.85;;;;;;;;;;4992234;28;20052;-40
2023/10/07 11:45:32;;;;;;;8.68;3.13;;;;;;;;;;4983308;28;20103;-40
2023/10/07 11:48:00;;;;;;;7.18;3.42;;;;;;;;;;4998685;28;20069;-40
2023/10/07 11:50:31;;;;;;;8.90;3.88;;;;;;;;;;4980186;28;21013;-39
2023/10/07 11:53:00;;;;;;;11.30;4.23;;;;;;;;;;5000576;28;20124;-39
2023/10/07 11:55:31;;;;;;;9.30;3.47;;;;;;;;;;4988520;28;20096;-39
2023/10/07 11:57:59;;;;;;;7.38;3.25;;;;;;;;;;4996035;28;20496;-39
2023/10/07 12:00:29;;;;;;;7.53;3.58;;;;;;;;;;4992034;28;20102;-39
2023/10/07 12:02:58;;;;;;;9.73;4.38;;;;;;;;;;4997210;28;20065;-40
2023/10/07 12:05:28;;;;;;;8.17;3.93;;;;;;;;;;4989346;28;20042;-39
2023/10/07 12:07:56;;;;;;;10.60;4.85;;;;;;;;;;4989397;28;20128;-39
2023/10/07 12:10:29;;;;;;;10.48;4.22;;;;;;;;;;4998702;28;20045;-39
2023/10/07 12:12:58;;;;;;;9.50;3.38;;;;;;;;;;4991872;28;20136;-39
2023/10/07 12:15:26;;;;;;;8.25;3.70;;;;;;;;;;5000852;28;20041;-39
2023/10/07 12:17:54;;;;;;;10.13;4.33;;;;;;;;;;4977752;28;20668;-39
2023/10/07 12:20:22;;;;;;;10.32;3.95;;;;;;;;;;5006725;28;20567;-39
2023/10/07 12:22:50;;;;;;;8.20;3.58;;;;;;;;;;4983741;28;20172;-39
2023/10/07 12:25:18;;;;;;;10.38;3.72;;;;;;;;;;5001674;28;20033;-39
2023/10/07 12:27:48;;;;;;;9.25;4.28;;;;;;;;;;4991150;28;20037;-39
2023/10/07 12:30:21;;;;;;;8.60;3.60;;;;;;;;;;4997958;28;20492;-39
2023/10/07 12:32:49;;;;;;;8.80;3.20;;;;;;;;;;4985150;28;20130;-39
2023/10/07 12:35:17;;;;;;;7.60;3.88;;;;;;;;;;4996536;28;20041;-39
2023/10/07 12:37:47;;;;;;;8.18;3.47;;;;;;;;;;4991167;28;20050;-39
2023/10/07 12:40:17;;;;;;;9.23;3.88;;;;;;;;;;4996718;28;20095;-39
2023/10/07 12:42:45;;;;;;;10.23;4.63;;;;;;;;;;4999052;28;20045;-39
2023/10/07 12:45:14;;;;;;;11.30;4.47;;;;;;;;;;4999221;28;20042;-40
2023/10/07 12:47:43;;;;;;;7.43;3.55;;;;;;;;;;4998575;28;20104;-39
2023/10/07 12:50:23;;;;;;;8.43;3.38;;;;;;;;;;4985424;28;20041;-40
2023/10/07 12:52:53;;;;;;;9.90;3.80;;;;;;;;;;4986878;28;20069;-39
2023/10/07 12:55:21;;;;;;;7.00;2.80;;;;;;;;;;4992134;28;20632;-39
2023/10/07 12:57:49;;;;;;;7.78;3.42;;;;;;;;;;5000763;28;20645;-39
2023/10/07 13:00:21;;;;;;;8.60;4.32;;;;;;;;;;4992639;28;20129;-39
2023/10/07 13:02:49;;;;;;;8.75;3.60;;;;;;;;;;4963083;28;20488;-39
2023/10/07 13:05:20;;;;;;;9.73;4.20;;;;;;;;;;5011220;28;20113;-40
2023/10/07 13:07:48;;;;;;;9.87;4.73;;;;;;;;;;4968569;28;20045;-40
2023/10/07 13:10:17;;;;;;;10.50;3.95;;;;;;;;;;5006133;28;20053;-39
2023/10/07 13:12:45;;;;;;;12.35;5.03;;;;;;;;;;5003618;28;20045;-40
2023/10/07 13:15:19;;;;;;;9.98;3.75;;;;;;;;;;4999450;28;20055;-39
2023/10/07 13:17:49;;;;;;;9.25;4.13;;;;;;;;;;5002008;28;20781;-40
2023/10/07 13:20:20;;;;;;;10.90;4.80;;;;;;;;;;5000231;28;20052;-39
2023/10/07 13:22:48;;;;;;;9.15;3.60;;;;;;;;;;4984400;28;20036;-39
2023/10/07 13:25:18;;;;;;;9.30;4.43;;;;;;;;;;5004135;28;21051;-39
2023/10/07 13:27:46;;;;;;;9.05;4.50;;;;;;;;;;4992709;28;20487;-39
2023/10/07 13:30:16;;;;;;;8.05;3.42;;;;;;;;;;4998971;28;20037;-39
2023/10/07 13:32:48;;;;;;;10.27;4.07;;;;;;;;;;4999710;28;20041;-39
2023/10/07 13:35:16;;;;;;;8.68;4.00;;;;;;;;;;4993478;28;20033;-42
2023/10/07 13:37:44;;;;;;;10.10;4.53;;;;;;;;;;5005124;28;20432;-39
2023/10/07 13:40:16;;;;;;;9.60;4.32;;;;;;;;;;4989817;28;20060;-39
2023/10/07 13:42:47;;;;;;;9.00;3.97;;;;;;;;;;4998651;28;20052;-40
2023/10/07 13:45:14;;;;;;;8.33;3.33;;;;;;;;;;4999053;28;20037;-39
2023/10/07 13:47:44;;;;;;;10.15;4.10;;;;;;;;;;4997524;28;20045;-39
2023/10/07 13:50:15;;;;;;;10.13;3.67;;;;;;;;;;4994464;28;20049;-39
2023/10/07 13:52:50;;;;;;;9.25;4.07;;;;;;;;;;5002106;28;20567;-40
2023/10/07 13:55:54;;;;;;;11.13;4.70;;;;;;;;;;5000645;28;20596;-39
2023/10/07 13:58:22;;;;;;;8.43;4.13;;;;;;;;;;4985248;28;20115;-39
2023/10/07 14:00:53;;;;;;;10.43;4.60;;;;;;;;;;5008015;28;20045;-39
2023/10/07 14:03:30;;;;;;;7.70;3.50;;;;;;;;;;4999360;28;20439;-39
2023/10/07 14:06:01;;;;;;;8.93;4.30;;;;;;;;;;4984486;28;20173;-39
2023/10/07 14:08:31;;;;;;;10.00;4.15;;;;;;;;;;4998962;28;20083;-39
2023/10/07 14:10:59;;;;;;;11.50;4.10;;;;;;;;;;5000453;28;20130;-39
2023/10/07 14:13:32;;;;;;;9.20;3.97;;;;;;;;;;4987824;28;20068;-39
2023/10/07 14:16:00;;;;;;;8.88;4.65;;;;;;;;;;5005478;28;20069;-39
2023/10/07 14:18:45;;;;;;;12.48;4.10;;;;;;;;;;4987377;28;20045;-39
2023/10/07 14:21:14;;;;;;;13.50;4.95;;;;;;;;;;4991292;28;20050;-39
2023/10/07 14:23:42;;;;;;;9.60;4.73;;;;;;;;;;5006793;28;20045;-39
2023/10/07 14:26:12;;;;;;;8.25;3.50;;;;;;;;;;4987703;28;20049;-40
2023/10/07 14:28:45;;;;;;;9.25;4.10;;;;;;;;;;4995344;28;20682;-40
2023/10/07 14:31:16;;;;;;;11.75;5.05;;;;;;;;;;5001650;28;20038;-40
2023/10/07 14:33:45;;;;;;;10.07;3.83;;;;;;;;;;4990040;28;20041;-39
2023/10/07 14:36:14;;;;;;;8.77;4.10;;;;;;;;;;5002457;28;20045;-40
2023/10/07 14:38:43;;;;;;;6.70;2.85;;;;;;;;;;4997111;28;20041;-41
2023/10/07 14:41:11;;;;;;;10.25;3.97;;;;;;;;;;4989241;28;22145;-45
2023/10/07 14:43:39;;;;;;;7.07;3.35;;;;;;;;;;5009157;28;20041;-39
2023/10/07 14:46:13;;;;;;;7.97;3.70;;;;;;;;;;5001793;28;20501;-39
2023/10/07 14:48:42;;;;;;;9.13;4.53;;;;;;;;;;4987791;28;20045;-40
2023/10/07 14:51:10;;;;;;;7.70;4.20;;;;;;;;;;5003321;28;20591;-41
2023/10/07 14:53:40;;;;;;;10.02;4.43;;;;;;;;;;4987840;28;20053;-39
2023/10/07 14:56:14;;;;;;;9.02;5.05;;;;;;;;;;5005614;28;20316;-39
2023/10/07 14:58:43;;;;;;;10.30;5.13;;;;;;;;;;4985541;28;20045;-39
2023/10/07 15:01:12;;;;;;;10.33;4.40;;;;;;;;;;5001815;28;20054;-40
2023/10/07 15:03:40;;;;;;;13.13;5.72;;;;;;;;;;4985256;28;20710;-40
2023/10/07 15:06:09;;;;;;;12.13;6.43;;;;;;;;;;5002718;28;20091;-39
2023/10/07 15:08:38;;;;;;;10.25;5.03;;;;;;;;;;4992882;28;20049;-39